sensor_id;sensor_type;location;lat;lon;timestamp;pressure;altitude;pressure_sealevel;temperature;humidity
58955;BME280;45815;52.334;5.024;2023-05-01T00:01:12;101873.16;;;11.39;100.00
58955;BME280;45815;52.334;5.024;2023-05-01T00:03:38;101871.38;;;11.38;100.00
58955;BME280;45815;52.334;5.024;2023-05-01T00:06:03;101860.75;;;11.35;100.00
58955;BME280;45815;52.334;5.024;2023-05-01T00:08:30;101862.50;;;11.35;100.00
58955;BME280;45815;52.334;5.024;2023-05-01T00:10:56;101850.78;;;11.25;100.00
58955;BME280;45815;52.334;5.024;2023-05-01T00:13:22;101861.50;;;11.31;100.00
58955;BME280;45815;52.334;5.024;2023-05-01T00:15:49;101861.41;;;11.28;100.00
58955;BME280;45815;52.334;5.024;2023-05-01T00:18:14;101859.56;;;11.26;100.00
58955;BME280;45815;52.334;5.024;2023-05-01T00:20:40;101861.25;;;11.24;100.00
58955;BME280;45815;52.334;5.024;2023-05-01T00:23:06;101850.63;;;11.20;100.00
58955;BME280;45815;52.334;5.024;2023-05-01T00:25:33;101847.06;;;11.18;100.00
58955;BME280;45815;52.334;5.024;2023-05-01T00:27:58;101851.28;;;11.13;100.00
58955;BME280;45815;52.334;5.024;2023-05-01T00:30:24;101841.56;;;11.11;100.00
58955;BME280;45815;52.334;5.024;2023-05-01T00:32:49;101832.75;;;11.09;100.00
58955;BME280;45815;52.334;5.024;2023-05-01T00:35:15;101830.91;;;11.06;100.00
58955;BME280;45815;52.334;5.024;2023-05-01T00:37:40;101829.13;;;11.05;100.00
58955;BME280;45815;52.334;5.024;2023-05-01T00:40:07;101829.91;;;11.03;100.00
58955;BME280;45815;52.334;5.024;2023-05-01T00:42:35;101830.69;;;11.00;100.00
58955;BME280;45815;52.334;5.024;2023-05-01T00:45:01;101825.44;;;11.00;100.00
58955;BME280;45815;52.334;5.024;2023-05-01T00:47:28;101820.00;;;10.94;100.00
58955;BME280;45815;52.334;5.024;2023-05-01T00:49:53;101821.59;;;10.89;100.00
58955;BME280;45815;52.334;5.024;2023-05-01T00:52:19;101818.84;;;10.86;100.00
58955;BME280;45815;52.334;5.024;2023-05-01T00:54:45;101814.34;;;10.82;100.00
58955;BME280;45815;52.334;5.024;2023-05-01T00:57:18;101821.16;;;10.76;100.00
58955;BME280;45815;52.334;5.024;2023-05-01T00:59:43;101809.59;;;10.71;100.00
58955;BME280;45815;52.334;5.024;2023-05-01T01:02:09;101803.31;;;10.66;100.00
58955;BME280;45815;52.334;5.024;2023-05-01T01:04:36;101787.34;;;10.60;100.00
58955;BME280;45815;52.334;5.024;2023-05-01T01:07:22;101806.56;;;10.59;100.00
58955;BME280;45815;52.334;5.024;2023-05-01T01:10:30;101802.03;;;10.55;100.00
58955;BME280;45815;52.334;5.024;2023-05-01T01:13:14;101785.19;;;10.48;100.00
58955;BME280;45815;52.334;5.024;2023-05-01T01:15:49;101798.59;;;10.56;100.00
58955;BME280;45815;52.334;5.024;2023-05-01T01:21:10;101780.78;;;10.47;100.00
58955;BME280;45815;52.334;5.024;2023-05-01T01:29:46;101772.59;;;10.38;100.00
58955;BME280;45815;52.334;5.024;2023-05-01T01:35:20;101762.88;;;10.35;100.00
58955;BME280;45815;52.334;5.024;2023-05-01T01:37:56;101758.44;;;10.33;100.00
58955;BME280;45815;52.334;5.024;2023-05-01T01:40:32;101745.84;;;10.24;100.00
58955;BME280;45815;52.334;5.024;2023-05-01T01:43:07;101754.66;;;10.26;100.00
58955;BME280;45815;52.334;5.024;2023-05-01T01:45:46;101742.25;;;10.22;100.00
58955;BME280;45815;52.334;5.024;2023-05-01T01:48:15;101738.84;;;10.25;100.00
58955;BME280;45815;52.334;5.024;2023-05-01T01:50:44;101740.53;;;10.23;100.00
58955;BME280;45815;52.334;5.024;2023-05-01T01:53:14;101739.56;;;10.21;100.00
58955;BME280;45815;52.334;5.024;2023-05-01T01:55:43;101732.47;;;10.17;100.00
58955;BME280;45815;52.334;5.024;2023-05-01T01:58:11;101726.34;;;10.16;100.00
58955;BME280;45815;52.334;5.024;2023-05-01T02:00:38;101724.44;;;10.12;100.00
58955;BME280;45815;52.334;5.024;2023-05-01T02:03:08;101724.47;;;10.13;100.00
58955;BME280;45815;52.334;5.024;2023-05-01T02:05:35;101713.94;;;10.12;100.00
58955;BME280;45815;52.334;5.024;2023-05-01T02:08:03;101717.38;;;10.11;100.00
58955;BME280;45815;52.334;5.024;2023-05-01T02:10:29;101696.94;;;10.01;100.00
58955;BME280;45815;52.334;5.024;2023-05-01T02:12:57;101703.28;;;10.07;100.00
58955;BME280;45815;52.334;5.024;2023-05-01T02:15:24;101701.53;;;10.08;100.00
58955;BME280;45815;52.334;5.024;2023-05-01T02:17:52;101705.03;;;10.07;100.00
58955;BME280;45815;52.334;5.024;2023-05-01T02:20:20;101706.78;;;10.08;100.00
58955;BME280;45815;52.334;5.024;2023-05-01T02:22:47;101697.97;;;10.06;100.00
58955;BME280;45815;52.334;5.024;2023-05-01T02:25:13;101685.59;;;10.02;100.00
58955;BME280;45815;52.334;5.024;2023-05-01T02:27:49;101683.72;;;9.98;100.00
58955;BME280;45815;52.334;5.024;2023-05-01T02:30:17;101675.88;;;9.99;100.00
58955;BME280;45815;52.334;5.024;2023-05-01T02:32:43;101675.00;;;9.99;100.00
58955;BME280;45815;52.334;5.024;2023-05-01T02:35:09;101668.00;;;9.99;100.00
58955;BME280;45815;52.334;5.024;2023-05-01T02:37:35;101669.75;;;9.99;100.00
58955;BME280;45815;52.334;5.024;2023-05-01T02:40:02;101660.03;;;9.96;100.00
58955;BME280;45815;52.334;5.024;2023-05-01T02:42:28;101656.47;;;9.94;100.00
58955;BME280;45815;52.334;5.024;2023-05-01T02:44:57;101661.72;;;9.94;100.00
58955;BME280;45815;52.334;5.024;2023-05-01T02:47:26;101654.72;;;9.93;100.00
58955;BME280;45815;52.334;5.024;2023-05-01T02:49:53;101653.69;;;9.89;100.00
58955;BME280;45815;52.334;5.024;2023-05-01T02:52:20;101650.97;;;9.86;100.00
58955;BME280;45815;52.334;5.024;2023-05-01T02:54:50;101656.13;;;9.83;100.00
58955;BME280;45815;52.334;5.024;2023-05-01T02:57:18;101642.94;;;9.82;100.00
58955;BME280;45815;52.334;5.024;2023-05-01T02:59:45;101635.97;;;9.82;100.00
58955;BME280;45815;52.334;5.024;2023-05-01T03:02:10;101631.56;;;9.81;100.00
58955;BME280;45815;52.334;5.024;2023-05-01T03:04:36;101629.75;;;9.79;100.00
58955;BME280;45815;52.334;5.024;2023-05-01T03:07:01;101631.44;;;9.78;100.00
58955;BME280;45815;52.334;5.024;2023-05-01T03:09:29;101630.63;;;9.79;100.00
58955;BME280;45815;52.334;5.024;2023-05-01T03:11:56;101627.16;;;9.80;100.00
58955;BME280;45815;52.334;5.024;2023-05-01T03:14:22;101630.63;;;9.79;100.00
58955;BME280;45815;52.334;5.024;2023-05-01T03:16:48;101634.06;;;9.78;100.00
58955;BME280;45815;52.334;5.024;2023-05-01T03:19:13;101641.13;;;9.79;100.00
58955;BME280;45815;52.334;5.024;2023-05-01T03:21:39;101639.31;;;9.78;100.00
58955;BME280;45815;52.334;5.024;2023-05-01T03:24:05;101639.38;;;9.80;100.00
58955;BME280;45815;52.334;5.024;2023-05-01T03:26:31;101636.81;;;9.81;100.00
58955;BME280;45815;52.334;5.024;2023-05-01T03:28:57;101628.00;;;9.79;100.00
58955;BME280;45815;52.334;5.024;2023-05-01T03:31:23;101636.75;;;9.80;100.00
58955;BME280;45815;52.334;5.024;2023-05-01T03:33:48;101625.25;;;9.76;100.00
58955;BME280;45815;52.334;5.024;2023-05-01T03:36:15;101629.56;;;9.74;100.00
58955;BME280;45815;52.334;5.024;2023-05-01T03:38:41;101625.94;;;9.70;100.00
58955;BME280;45815;52.334;5.024;2023-05-01T03:41:09;101624.09;;;9.68;100.00
58955;BME280;45815;52.334;5.024;2023-05-01T03:44:03;101599.06;;;9.52;100.00
58955;BME280;45815;52.334;5.024;2023-05-01T03:46:40;101624.63;;;9.58;100.00
58955;BME280;45815;52.334;5.024;2023-05-01T03:49:09;101608.78;;;9.55;100.00
58955;BME280;45815;52.334;5.024;2023-05-01T03:51:41;101615.69;;;9.52;100.00
58955;BME280;45815;52.334;5.024;2023-05-01T03:54:07;101610.34;;;9.49;100.00
58955;BME280;45815;52.334;5.024;2023-05-01T03:56:47;101613.81;;;9.48;100.00
58955;BME280;45815;52.334;5.024;2023-05-01T03:59:12;101611.19;;;9.48;100.00
58955;BME280;45815;52.334;5.024;2023-05-01T04:01:38;101598.81;;;9.44;100.00
58955;BME280;45815;52.334;5.024;2023-05-01T04:04:04;101614.00;;;9.55;100.00
58955;BME280;45815;52.334;5.024;2023-05-01T04:06:30;101587.47;;;9.45;100.00
58955;BME280;45815;52.334;5.024;2023-05-01T04:08:55;101607.09;;;9.57;100.00
58955;BME280;45815;52.334;5.024;2023-05-01T04:11:21;101600.97;;;9.56;100.00
58955;BME280;45815;52.334;5.024;2023-05-01T04:13:46;101602.81;;;9.59;100.00
58955;BME280;45815;52.334;5.024;2023-05-01T04:16:12;101597.63;;;9.60;100.00
58955;BME280;45815;52.334;5.024;2023-05-01T04:18:39;101598.41;;;9.58;100.00
58955;BME280;45815;52.334;5.024;2023-05-01T04:21:04;101599.19;;;9.55;100.00
58955;BME280;45815;52.334;5.024;2023-05-01T04:23:30;101593.94;;;9.55;100.00
58955;BME280;45815;52.334;5.024;2023-05-01T04:25:57;101597.50;;;9.57;100.00
58955;BME280;45815;52.334;5.024;2023-05-01T04:28:22;101599.25;;;9.57;100.00
58955;BME280;45815;52.334;5.024;2023-05-01T04:30:48;101593.19;;;9.58;100.00
58955;BME280;45815;52.334;5.024;2023-05-01T04:33:14;101599.31;;;9.58;100.00
58955;BME280;45815;52.334;5.024;2023-05-01T04:35:40;101594.88;;;9.57;100.00
58955;BME280;45815;52.334;5.024;2023-05-01T04:38:07;101594.00;;;9.57;100.00
58955;BME280;45815;52.334;5.024;2023-05-01T04:40:33;101594.94;;;9.59;100.00
58955;BME280;45815;52.334;5.024;2023-05-01T04:42:58;101597.63;;;9.60;100.00
58955;BME280;45815;52.334;5.024;2023-05-01T04:45:24;101595.91;;;9.61;100.00
58955;BME280;45815;52.334;5.024;2023-05-01T04:47:49;101597.63;;;9.60;100.00
58955;BME280;45815;52.334;5.024;2023-05-01T04:50:15;101592.38;;;9.60;100.00
58955;BME280;45815;52.334;5.024;2023-05-01T04:52:40;101590.66;;;9.61;100.00
58955;BME280;45815;52.334;5.024;2023-05-01T04:55:07;101592.50;;;9.63;100.00
58955;BME280;45815;52.334;5.024;2023-05-01T04:57:43;101592.56;;;9.65;100.00
58955;BME280;45815;52.334;5.024;2023-05-01T05:00:09;101586.47;;;9.66;100.00
58955;BME280;45815;52.334;5.024;2023-05-01T05:02:45;101587.56;;;9.72;100.00
58955;BME280;45815;52.334;5.024;2023-05-01T05:05:12;101594.66;;;9.75;100.00
58955;BME280;45815;52.334;5.024;2023-05-01T05:07:37;101592.34;;;9.84;100.00
58955;BME280;45815;52.334;5.024;2023-05-01T05:10:24;101589.25;;;9.96;100.00
58955;BME280;45815;52.334;5.024;2023-05-01T05:13:04;101592.97;;;10.03;100.00
58955;BME280;45815;52.334;5.024;2023-05-01T05:15:30;101588.75;;;10.08;100.00
58955;BME280;45815;52.334;5.024;2023-05-01T05:17:55;101600.28;;;10.13;100.00
58955;BME280;45815;52.334;5.024;2023-05-01T05:20:20;101589.13;;;10.19;100.00
58955;BME280;45815;52.334;5.024;2023-05-01T05:22:46;101591.03;;;10.24;100.00
58955;BME280;45815;52.334;5.024;2023-05-01T05:25:29;101588.59;;;10.29;100.00
58955;BME280;45815;52.334;5.024;2023-05-01T05:27:55;101590.50;;;10.34;100.00
58955;BME280;45815;52.334;5.024;2023-05-01T05:30:20;101591.66;;;10.43;100.00
58955;BME280;45815;52.334;5.024;2023-05-01T05:32:45;101596.19;;;10.48;100.00
58955;BME280;45815;52.334;5.024;2023-05-01T05:35:12;101594.66;;;10.55;100.00
58955;BME280;45815;52.334;5.024;2023-05-01T05:37:37;101588.69;;;10.59;100.00
58955;BME280;45815;52.334;5.024;2023-05-01T05:40:03;101593.22;;;10.65;100.00
58955;BME280;45815;52.334;5.024;2023-05-01T05:42:35;101586.41;;;10.71;100.00
58955;BME280;45815;52.334;5.024;2023-05-01T05:45:04;101584.00;;;10.77;100.00
58955;BME280;45815;52.334;5.024;2023-05-01T05:47:30;101591.19;;;10.85;100.00
58955;BME280;45815;52.334;5.024;2023-05-01T05:49:56;101587.97;;;10.93;100.00
58955;BME280;45815;52.334;5.024;2023-05-01T05:52:21;101583.75;;;11.00;100.00
58955;BME280;45815;52.334;5.024;2023-05-01T05:54:47;101578.78;;;11.09;100.00
58955;BME280;45815;52.334;5.024;2023-05-01T05:57:13;101574.59;;;11.16;100.00
58955;BME280;45815;52.334;5.024;2023-05-01T05:59:42;101567.72;;;11.21;100.00
58955;BME280;45815;52.334;5.024;2023-05-01T06:02:10;101567.84;;;11.26;100.00
58955;BME280;45815;52.334;5.024;2023-05-01T06:04:35;101575.06;;;11.33;100.00
58955;BME280;45815;52.334;5.024;2023-05-01T06:07:00;101571.66;;;11.37;100.00
58955;BME280;45815;52.334;5.024;2023-05-01T06:09:26;101567.41;;;11.40;100.00
58955;BME280;45815;52.334;5.024;2023-05-01T06:11:51;101560.41;;;11.41;100.00
58955;BME280;45815;52.334;5.024;2023-05-01T06:14:17;101557.84;;;11.44;100.00
58955;BME280;45815;52.334;5.024;2023-05-01T06:16:42;101558.78;;;11.46;100.00
58955;BME280;45815;52.334;5.024;2023-05-01T06:19:08;101549.19;;;11.48;100.00
58955;BME280;45815;52.334;5.024;2023-05-01T06:21:36;101558.09;;;11.53;100.00
58955;BME280;45815;52.334;5.024;2023-05-01T06:24:03;101552.13;;;11.59;100.00
58955;BME280;45815;52.334;5.024;2023-05-01T06:26:37;101558.41;;;11.66;100.00
58955;BME280;45815;52.334;5.024;2023-05-01T06:29:03;101557.66;;;11.70;100.00
58955;BME280;45815;52.334;5.024;2023-05-01T06:31:28;101556.00;;;11.75;100.00
58955;BME280;45815;52.334;5.024;2023-05-01T06:33:55;101551.78;;;11.80;100.00
58955;BME280;45815;52.334;5.024;2023-05-01T06:36:26;101558.06;;;11.85;100.00
58955;BME280;45815;52.334;5.024;2023-05-01T06:38:52;101545.00;;;11.88;100.00
58955;BME280;45815;52.334;5.024;2023-05-01T06:41:18;101554.00;;;11.96;100.00
58955;BME280;45815;52.334;5.024;2023-05-01T06:43:44;101552.38;;;12.03;100.00
58955;BME280;45815;52.334;5.024;2023-05-01T06:46:09;101556.97;;;12.12;100.00
58955;BME280;45815;52.334;5.024;2023-05-01T06:48:35;101558.78;;;12.13;100.00
58955;BME280;45815;52.334;5.024;2023-05-01T06:51:00;101564.22;;;12.20;100.00
58955;BME280;45815;52.334;5.024;2023-05-01T06:53:25;101553.84;;;12.28;100.00
58955;BME280;45815;52.334;5.024;2023-05-01T06:55:51;101561.97;;;12.37;100.00
58955;BME280;45815;52.334;5.024;2023-05-01T06:58:16;101548.88;;;12.40;100.00
58955;BME280;45815;52.334;5.024;2023-05-01T07:00:41;101555.16;;;12.45;100.00
58955;BME280;45815;52.334;5.024;2023-05-01T07:03:07;101546.44;;;12.50;100.00
58955;BME280;45815;52.334;5.024;2023-05-01T07:05:32;101551.00;;;12.57;100.00
58955;BME280;45815;52.334;5.024;2023-05-01T07:07:58;101551.13;;;12.63;100.00
58955;BME280;45815;52.334;5.024;2023-05-01T07:10:23;101556.56;;;12.69;100.00
58955;BME280;45815;52.334;5.024;2023-05-01T07:12:48;101560.13;;;12.73;100.00
58955;BME280;45815;52.334;5.024;2023-05-01T07:15:14;101535.59;;;12.74;100.00
58955;BME280;45815;52.334;5.024;2023-05-01T07:17:40;101548.19;;;12.88;100.00
58955;BME280;45815;52.334;5.024;2023-05-01T07:20:06;101550.06;;;12.96;100.00
58955;BME280;45815;52.334;5.024;2023-05-01T07:22:32;101552.81;;;13.00;100.00
58955;BME280;45815;52.334;5.024;2023-05-01T07:24:58;101544.13;;;13.04;100.00
58955;BME280;45815;52.334;5.024;2023-05-01T07:27:25;101543.34;;;13.10;100.00
58955;BME280;45815;52.334;5.024;2023-05-01T07:29:50;101544.34;;;13.17;100.00
58955;BME280;45815;52.334;5.024;2023-05-01T07:32:16;101539.22;;;13.23;100.00
58955;BME280;45815;52.334;5.024;2023-05-01T07:34:41;101535.88;;;13.32;100.00
58955;BME280;45815;52.334;5.024;2023-05-01T07:37:07;101540.47;;;13.42;100.00
58955;BME280;45815;52.334;5.024;2023-05-01T07:39:32;101537.09;;;13.49;100.00
58955;BME280;45815;52.334;5.024;2023-05-01T07:41:57;101540.56;;;13.48;100.00
58955;BME280;45815;52.334;5.024;2023-05-01T07:44:23;101544.09;;;13.47;100.00
58955;BME280;45815;52.334;5.024;2023-05-01T07:46:48;101536.31;;;13.55;100.00
58955;BME280;45815;52.334;5.024;2023-05-01T07:49:13;101534.72;;;13.63;100.00
58955;BME280;45815;52.334;5.024;2023-05-01T07:51:39;101530.47;;;13.72;100.00
58955;BME280;45815;52.334;5.024;2023-05-01T07:54:05;101537.63;;;13.80;100.00
58955;BME280;45815;52.334;5.024;2023-05-01T07:56:30;101541.38;;;13.94;100.00
58955;BME280;45815;52.334;5.024;2023-05-01T07:58:56;101533.50;;;13.97;100.00
58955;BME280;45815;52.334;5.024;2023-05-01T08:01:22;101544.22;;;14.06;100.00
58955;BME280;45815;52.334;5.024;2023-05-01T08:03:47;101543.38;;;14.07;100.00
58955;BME280;45815;52.334;5.024;2023-05-01T08:06:13;101533.75;;;14.12;100.00
58955;BME280;45815;52.334;5.024;2023-05-01T08:08:38;101540.88;;;14.17;100.00
58955;BME280;45815;52.334;5.024;2023-05-01T08:11:04;101536.53;;;14.22;100.00
58955;BME280;45815;52.334;5.024;2023-05-01T08:13:29;101539.41;;;14.35;100.00
58955;BME280;45815;52.334;5.024;2023-05-01T08:15:55;101540.31;;;14.39;100.00
58955;BME280;45815;52.334;5.024;2023-05-01T08:18:23;101544.00;;;14.50;100.00
58955;BME280;45815;52.334;5.024;2023-05-01T08:20:48;101548.56;;;14.59;100.00
58955;BME280;45815;52.334;5.024;2023-05-01T08:23:17;101545.91;;;14.61;100.00
58955;BME280;45815;52.334;5.024;2023-05-01T08:25:43;101540.75;;;14.70;100.00
58955;BME280;45815;52.334;5.024;2023-05-01T08:28:12;101547.88;;;14.74;100.00
58955;BME280;45815;52.334;5.024;2023-05-01T08:30:38;101540.81;;;14.74;100.00
58955;BME280;45815;52.334;5.024;2023-05-01T08:33:03;101545.31;;;14.80;100.00
58955;BME280;45815;52.334;5.024;2023-05-01T08:35:29;101535.56;;;14.76;100.00
58955;BME280;45815;52.334;5.024;2023-05-01T08:37:54;101549.00;;;14.91;100.00
58955;BME280;45815;52.334;5.024;2023-05-01T08:40:22;101548.16;;;14.97;100.00
58955;BME280;45815;52.334;5.024;2023-05-01T08:42:48;101548.25;;;15.03;100.00
58955;BME280;45815;52.334;5.024;2023-05-01T08:45:14;101550.06;;;15.06;100.00
58955;BME280;45815;52.334;5.024;2023-05-01T08:47:40;101548.31;;;15.09;100.00
58955;BME280;45815;52.334;5.024;2023-05-01T08:50:10;101551.94;;;15.19;100.00
58955;BME280;45815;52.334;5.024;2023-05-01T08:52:39;101550.28;;;15.29;100.00
58955;BME280;45815;52.334;5.024;2023-05-01T08:55:08;101538.94;;;15.36;100.00
58955;BME280;45815;52.334;5.024;2023-05-01T08:57:36;101549.59;;;15.44;100.00
58955;BME280;45815;52.334;5.024;2023-05-01T09:00:02;101544.31;;;15.47;100.00
58955;BME280;45815;52.334;5.024;2023-05-01T09:02:30;101550.59;;;15.55;100.00
58955;BME280;45815;52.334;5.024;2023-05-01T09:04:59;101543.56;;;15.57;100.00
58955;BME280;45815;52.334;5.024;2023-05-01T09:07:25;101549.78;;;15.62;100.00
58955;BME280;45815;52.334;5.024;2023-05-01T09:09:51;101546.25;;;15.66;100.00
58955;BME280;45815;52.334;5.024;2023-05-01T09:14:42;101547.28;;;15.77;100.00
58955;BME280;45815;52.334;5.024;2023-05-01T09:17:07;101550.94;;;15.90;100.00
58955;BME280;45815;52.334;5.024;2023-05-01T09:19:33;101552.75;;;15.99;100.00
58955;BME280;45815;52.334;5.024;2023-05-01T09:21:59;101534.22;;;15.96;100.00
58955;BME280;45815;52.334;5.024;2023-05-01T09:24:24;101555.53;;;16.11;100.00
58955;BME280;45815;52.334;5.024;2023-05-01T09:26:50;101546.75;;;16.21;100.00
58955;BME280;45815;52.334;5.024;2023-05-01T09:29:39;101562.94;;;16.69;100.00
58955;BME280;45815;52.334;5.024;2023-05-01T09:34:37;101557.94;;;17.26;100.00
58955;BME280;45815;52.334;5.024;2023-05-01T09:37:02;101558.00;;;17.64;100.00
58955;BME280;45815;52.334;5.024;2023-05-01T09:39:28;101558.94;;;17.92;100.00
58955;BME280;45815;52.334;5.024;2023-05-01T09:41:54;101566.91;;;18.25;100.00
58955;BME280;45815;52.334;5.024;2023-05-01T09:44:20;101566.00;;;18.30;100.00
58955;BME280;45815;52.334;5.024;2023-05-01T09:46:45;101556.25;;;18.32;100.00
58955;BME280;45815;52.334;5.024;2023-05-01T09:49:11;101559.78;;;18.39;100.00
58955;BME280;45815;52.334;5.024;2023-05-01T09:51:37;101563.34;;;18.43;100.00
58955;BME280;45815;52.334;5.024;2023-05-01T09:54:03;101566.00;;;18.38;100.00
58955;BME280;45815;52.334;5.024;2023-05-01T09:56:31;101558.94;;;18.26;97.48
58955;BME280;45815;52.334;5.024;2023-05-01T09:59:13;101559.81;;;18.07;85.94
58955;BME280;45815;52.334;5.024;2023-05-01T10:01:42;101566.03;;;18.15;88.90
58955;BME280;45815;52.334;5.024;2023-05-01T10:04:08;101567.78;;;18.22;92.98
58955;BME280;45815;52.334;5.024;2023-05-01T10:06:34;101571.34;;;18.24;91.50
58955;BME280;45815;52.334;5.024;2023-05-01T10:09:01;101570.44;;;18.39;89.75
58955;BME280;45815;52.334;5.024;2023-05-01T10:11:27;101571.22;;;18.70;90.40
58955;BME280;45815;52.334;5.024;2023-05-01T10:14:06;101575.69;;;18.81;88.34
58955;BME280;45815;52.334;5.024;2023-05-01T10:16:34;101573.81;;;19.09;93.69
58955;BME280;45815;52.334;5.024;2023-05-01T10:19:01;101578.16;;;19.24;91.81
58955;BME280;45815;52.334;5.024;2023-05-01T10:21:27;101571.00;;;19.35;90.27
58955;BME280;45815;52.334;5.024;2023-05-01T10:23:54;101578.94;;;19.43;91.42
58955;BME280;45815;52.334;5.024;2023-05-01T10:26:19;101581.59;;;19.44;90.39
58955;BME280;45815;52.334;5.024;2023-05-01T10:28:47;101583.38;;;19.44;92.00
58955;BME280;45815;52.334;5.024;2023-05-01T10:31:13;101589.56;;;19.47;89.36
58955;BME280;45815;52.334;5.024;2023-05-01T10:33:39;101586.03;;;19.42;90.44
58955;BME280;45815;52.334;5.024;2023-05-01T10:36:09;101579.81;;;19.46;95.24
58955;BME280;45815;52.334;5.024;2023-05-01T10:38:37;101590.47;;;19.46;96.42
58955;BME280;45815;52.334;5.024;2023-05-01T10:41:02;101585.16;;;19.45;98.22
58955;BME280;45815;52.334;5.024;2023-05-01T10:43:31;101583.38;;;19.48;100.00
58955;BME280;45815;52.334;5.024;2023-05-01T10:51:12;101589.56;;;19.47;100.00
58955;BME280;45815;52.334;5.024;2023-05-01T10:53:39;101588.66;;;19.53;100.00
58955;BME280;45815;52.334;5.024;2023-05-01T10:58:58;101586.03;;;19.40;100.00
58955;BME280;45815;52.334;5.024;2023-05-01T11:03:57;101596.88;;;19.07;100.00
58955;BME280;45815;52.334;5.024;2023-05-01T11:06:22;101581.69;;;19.26;100.00
58955;BME280;45815;52.334;5.024;2023-05-01T11:08:48;101595.97;;;19.11;100.00
58955;BME280;45815;52.334;5.024;2023-05-01T11:14:01;101589.84;;;18.81;100.00
58955;BME280;45815;52.334;5.024;2023-05-01T11:21:47;101596.97;;;18.64;100.00
58955;BME280;45815;52.334;5.024;2023-05-01T11:24:13;101594.34;;;18.44;100.00
58955;BME280;45815;52.334;5.024;2023-05-01T11:26:40;101599.66;;;18.25;100.00
58955;BME280;45815;52.334;5.024;2023-05-01T11:29:08;101595.25;;;18.13;100.00
58955;BME280;45815;52.334;5.024;2023-05-01T11:31:37;101601.44;;;18.11;100.00
58955;BME280;45815;52.334;5.024;2023-05-01T11:34:03;101598.78;;;18.09;100.00
58955;BME280;45815;52.334;5.024;2023-05-01T11:36:29;101600.56;;;18.06;100.00
58955;BME280;45815;52.334;5.024;2023-05-01T11:39:13;101601.47;;;18.08;100.00
58955;BME280;45815;52.334;5.024;2023-05-01T11:41:39;101597.91;;;18.03;100.00
58955;BME280;45815;52.334;5.024;2023-05-01T11:44:05;101599.66;;;17.88;100.00
58955;BME280;45815;52.334;5.024;2023-05-01T11:46:32;101601.38;;;17.71;100.00
58955;BME280;45815;52.334;5.024;2023-05-01T11:49:01;101602.25;;;17.56;100.00
58955;BME280;45815;52.334;5.024;2023-05-01T11:51:28;101602.22;;;17.53;100.00
58955;BME280;45815;52.334;5.024;2023-05-01T11:54:01;101604.81;;;17.33;100.00
58955;BME280;45815;52.334;5.024;2023-05-01T11:56:28;101597.69;;;17.20;100.00
58955;BME280;45815;52.334;5.024;2023-05-01T11:58:58;101611.78;;;17.06;100.00
58955;BME280;45815;52.334;5.024;2023-05-01T12:01:37;101603.78;;;16.96;100.00
58955;BME280;45815;52.334;5.024;2023-05-01T12:04:04;101603.75;;;16.90;100.00
58955;BME280;45815;52.334;5.024;2023-05-01T12:06:41;101599.31;;;16.84;100.00
58955;BME280;45815;52.334;5.024;2023-05-01T12:09:17;101596.56;;;16.76;100.00
58955;BME280;45815;52.334;5.024;2023-05-01T12:11:44;101600.97;;;16.73;100.00
58955;BME280;45815;52.334;5.024;2023-05-01T12:14:11;101597.41;;;16.67;100.00
58955;BME280;45815;52.334;5.024;2023-05-01T12:16:38;101596.47;;;16.59;100.00
58955;BME280;45815;52.334;5.024;2023-05-01T12:19:05;101593.72;;;16.45;100.00
58955;BME280;45815;52.334;5.024;2023-05-01T12:21:31;101606.00;;;16.33;100.00
58955;BME280;45815;52.334;5.024;2023-05-01T12:24:10;101599.69;;;16.17;100.00
58955;BME280;45815;52.334;5.024;2023-05-01T12:26:36;101602.44;;;16.28;100.00
58955;BME280;45815;52.334;5.024;2023-05-01T12:29:05;101600.56;;;16.17;100.00
58955;BME280;45815;52.334;5.024;2023-05-01T12:31:32;101598.88;;;16.27;100.00
58955;BME280;45815;52.334;5.024;2023-05-01T12:33:59;101595.41;;;16.33;100.00
58955;BME280;45815;52.334;5.024;2023-05-01T12:36:26;101600.72;;;16.36;100.00
58955;BME280;45815;52.334;5.024;2023-05-01T12:38:59;101594.56;;;16.37;100.00
58955;BME280;45815;52.334;5.024;2023-05-01T12:46:44;101594.75;;;16.66;100.00
58955;BME280;45815;52.334;5.024;2023-05-01T12:49:19;101594.00;;;16.87;100.00
58955;BME280;45815;52.334;5.024;2023-05-01T12:51:49;101589.69;;;17.07;100.00
58955;BME280;45815;52.334;5.024;2023-05-01T12:54:27;101586.19;;;17.25;100.00
58955;BME280;45815;52.334;5.024;2023-05-01T12:57:07;101593.31;;;17.23;100.00
58955;BME280;45815;52.334;5.024;2023-05-01T12:59:35;101588.88;;;17.30;100.00
58955;BME280;45815;52.334;5.024;2023-05-01T13:02:05;101599.53;;;17.48;100.00
58955;BME280;45815;52.334;5.024;2023-05-01T13:04:31;101591.63;;;17.56;100.00
58955;BME280;45815;52.334;5.024;2023-05-01T13:06:57;101596.06;;;17.68;100.00
58955;BME280;45815;52.334;5.024;2023-05-01T13:09:25;101608.44;;;17.63;100.00
58955;BME280;45815;52.334;5.024;2023-05-01T13:12:02;101594.34;;;17.81;100.00
58955;BME280;45815;52.334;5.024;2023-05-01T13:14:35;101587.28;;;17.89;100.00
58955;BME280;45815;52.334;5.024;2023-05-01T13:17:02;101592.59;;;18.15;100.00
58955;BME280;45815;52.334;5.024;2023-05-01T13:19:28;101593.50;;;18.26;100.00
58955;BME280;45815;52.334;5.024;2023-05-01T13:21:55;101599.66;;;18.28;100.00
58955;BME280;45815;52.334;5.024;2023-05-01T13:24:21;101590.81;;;18.48;100.00
58955;BME280;45815;52.334;5.024;2023-05-01T13:26:55;101589.84;;;18.84;100.00